createdAt,value
2018-11-13T00:01:33.519Z,31.80
2018-11-13T00:06:31.555Z,30.20
2018-11-13T00:11:28.980Z,31.20
2018-11-13T00:16:28.370Z,32.10
2018-11-13T00:21:25.739Z,31.47
2018-11-13T00:26:23.157Z,31.87
2018-11-13T00:31:20.526Z,34.70
2018-11-13T00:36:17.926Z,34.43
2018-11-13T00:41:15.325Z,32.67
2018-11-13T00:46:18.993Z,32.30
2018-11-13T00:51:16.427Z,32.80
2018-11-13T00:56:13.967Z,29.37
2018-11-13T01:01:11.407Z,29.70
2018-11-13T01:06:08.775Z,32.10
2018-11-13T01:11:06.142Z,29.30
2018-11-13T01:16:08.528Z,31.93
2018-11-13T01:21:06.054Z,27.77
2018-11-13T01:26:03.527Z,30.80
2018-11-13T01:31:00.891Z,31.07
2018-11-13T01:35:58.242Z,35.60
2018-11-13T01:40:55.630Z,36.40
2018-11-13T01:46:05.024Z,30.97
2018-11-13T01:51:02.443Z,34.57
2018-11-13T01:55:59.794Z,35.67
2018-11-13T02:00:57.160Z,35.53
2018-11-13T02:05:54.522Z,35.73
2018-11-13T02:10:51.878Z,36.70
2018-11-13T02:15:56.032Z,35.07
2018-11-13T02:20:53.546Z,36.03
2018-11-13T02:25:50.892Z,32.40
2018-11-13T02:30:48.245Z,33.70
2018-11-13T02:35:45.622Z,33.57
2018-11-13T02:40:43.075Z,34.50
2018-11-13T02:45:42.350Z,31.60
2018-11-13T02:50:39.806Z,35.17
2018-11-13T02:55:37.165Z,33.80
2018-11-13T03:00:34.539Z,31.60
2018-11-13T03:05:31.931Z,34.80
2018-11-13T03:10:29.300Z,33.33
2018-11-13T03:15:26.674Z,32.10
2018-11-13T03:20:24.076Z,34.60
2018-11-13T03:25:22.098Z,29.07
2018-11-13T03:30:24.547Z,33.20
2018-11-13T03:35:21.925Z,33.00
2018-11-13T03:40:19.382Z,32.00
2018-11-13T03:45:17.251Z,31.57
2018-11-13T03:50:15.839Z,29.27
2018-11-13T03:55:13.839Z,32.47
2018-11-13T04:00:13.150Z,31.60
2018-11-13T04:05:15.675Z,30.63
2018-11-13T04:10:14.129Z,31.77
2018-11-13T04:15:12.995Z,27.70
2018-11-13T04:20:12.260Z,29.30
2018-11-13T04:25:09.730Z,27.70
2018-11-13T04:30:09.560Z,29.07
2018-11-13T04:35:08.130Z,30.20
2018-11-13T04:40:08.938Z,33.60
2018-11-13T04:45:07.999Z,32.73
2018-11-13T04:50:06.812Z,33.67
2018-11-13T04:55:04.606Z,32.67
2018-11-13T05:00:02.096Z,33.23
2018-11-13T05:04:59.454Z,33.77
2018-11-13T05:09:56.831Z,29.97
2018-11-13T05:14:54.258Z,29.43
2018-11-13T05:19:52.164Z,30.53
2018-11-13T05:24:49.560Z,31.17
2018-11-13T05:29:46.916Z,30.37
2018-11-13T05:34:44.401Z,31.80
2018-11-13T05:39:41.795Z,31.80
2018-11-13T05:44:39.155Z,30.70
2018-11-13T05:49:36.517Z,31.40
2018-11-13T05:54:33.899Z,30.77
2018-11-13T05:59:31.335Z,29.10
2018-11-13T06:04:28.746Z,29.80
2018-11-13T06:09:26.136Z,32.33
2018-11-13T06:14:23.534Z,30.50
2018-11-13T06:19:20.955Z,29.60
2018-11-13T06:24:18.831Z,29.07
2018-11-13T06:29:16.216Z,29.60
2018-11-13T06:34:13.626Z,30.53
2018-11-13T06:39:12.863Z,28.10
2018-11-13T06:44:10.303Z,26.03
2018-11-13T06:49:07.768Z,26.47
2018-11-13T06:54:16.447Z,28.73
2018-11-13T06:59:13.841Z,26.37
2018-11-13T07:04:11.253Z,27.23
2018-11-13T07:09:09.220Z,25.33
2018-11-13T07:14:06.626Z,23.43
2018-11-13T07:19:04.563Z,23.67
2018-11-13T07:24:01.991Z,21.63
2018-11-13T07:29:00.019Z,23.30
2018-11-13T07:33:57.426Z,23.70
2018-11-13T07:38:54.823Z,21.67
2018-11-13T07:43:52.296Z,20.23
2018-11-13T07:48:49.776Z,19.73
2018-11-13T07:53:47.256Z,17.67
2018-11-13T07:58:44.714Z,20.27
2018-11-13T08:03:42.182Z,19.43
2018-11-13T08:08:39.561Z,17.47
2018-11-13T08:13:37.133Z,17.00
2018-11-13T08:18:34.436Z,16.40
2018-11-13T08:23:31.923Z,14.03
2018-11-13T08:28:29.364Z,13.77
2018-11-13T08:33:26.803Z,12.17
2018-11-13T08:38:24.247Z,12.20
2018-11-13T08:43:21.685Z,10.80
2018-11-13T08:48:19.169Z,8.90
2018-11-13T08:53:16.591Z,8.97
2018-11-13T08:58:13.979Z,7.40
2018-11-13T09:03:11.509Z,4.47
2018-11-13T09:08:09.784Z,4.57
2018-11-13T09:13:07.193Z,5.80
2018-11-13T09:18:05.002Z,4.20
2018-11-13T09:23:02.458Z,3.60
2018-11-13T09:27:59.842Z,5.07
2018-11-13T09:32:57.299Z,3.13
2018-11-13T09:37:54.708Z,5.40
2018-11-13T09:42:52.178Z,5.67
2018-11-13T09:47:49.645Z,5.37
2018-11-13T09:52:48.068Z,3.40
2018-11-13T09:57:45.482Z,3.77
2018-11-13T10:02:46.871Z,4.73
2018-11-13T10:07:44.137Z,3.53
2018-11-13T10:12:41.560Z,3.50
2018-11-13T10:17:39.173Z,5.10
2018-11-13T10:22:36.540Z,2.30
2018-11-13T10:27:34.003Z,4.47
2018-11-13T10:32:31.444Z,3.87
2018-11-13T10:37:28.867Z,4.90
2018-11-13T10:42:26.317Z,3.57
2018-11-13T10:47:23.737Z,4.60
2018-11-13T10:52:21.166Z,3.90
2018-11-13T10:57:18.586Z,3.97
2018-11-13T11:02:21.682Z,4.63
2018-11-13T11:07:19.175Z,3.50
2018-11-13T11:12:16.586Z,4.30
2018-11-13T11:17:13.999Z,3.37
2018-11-13T11:22:11.396Z,4.17
2018-11-13T11:27:08.807Z,3.40
2018-11-13T11:32:06.282Z,2.90
2018-11-13T11:37:03.895Z,3.10
2018-11-13T11:42:01.336Z,2.20
2018-11-13T11:46:58.741Z,2.10
2018-11-13T11:51:56.182Z,1.63
2018-11-13T11:56:53.590Z,1.80
2018-11-13T12:01:51.020Z,1.60
2018-11-13T12:06:48.434Z,2.60
2018-11-13T12:11:45.829Z,1.60
2018-11-13T12:16:43.239Z,0.90
2018-11-13T12:21:40.631Z,1.70
2018-11-13T12:26:38.022Z,1.93
2018-11-13T12:31:35.429Z,1.97
2018-11-13T12:36:32.936Z,2.03
2018-11-13T12:41:30.343Z,2.53
2018-11-13T12:46:27.768Z,3.10
2018-11-13T12:51:30.800Z,3.10
2018-11-13T12:56:28.406Z,3.30
2018-11-13T13:01:25.722Z,4.60
2018-11-13T13:06:23.175Z,4.50
2018-11-13T13:11:20.590Z,4.83
2018-11-13T13:16:17.978Z,3.60
2018-11-13T13:21:15.399Z,3.50
2018-11-13T13:26:12.804Z,2.60
2018-11-13T13:31:10.328Z,2.70
2018-11-13T13:36:07.734Z,3.53
2018-11-13T13:41:05.606Z,2.20
2018-11-13T13:46:03.039Z,2.07
2018-11-13T13:51:00.423Z,2.50
2018-11-13T13:55:57.910Z,1.20
2018-11-13T14:00:56.197Z,2.50
2018-11-13T14:05:57.282Z,2.77
2018-11-13T14:10:54.763Z,2.97
2018-11-13T14:15:52.170Z,2.50
2018-11-13T14:20:49.677Z,3.30
2018-11-13T14:25:47.106Z,2.03
2018-11-13T14:30:44.587Z,1.77
2018-11-13T14:35:47.190Z,1.87
2018-11-13T14:40:45.884Z,2.73
2018-11-13T14:45:43.657Z,2.50
2018-11-13T14:50:41.490Z,2.03
2018-11-13T14:55:40.678Z,1.53
2018-11-13T15:00:38.578Z,1.30
2018-11-13T15:05:40.639Z,1.80
2018-11-13T15:10:51.461Z,1.80
2018-11-13T15:15:48.889Z,2.00
2018-11-13T15:20:46.995Z,2.13
2018-11-13T15:25:44.418Z,1.67
2018-11-13T15:30:43.322Z,2.10
2018-11-13T15:35:40.742Z,2.50
2018-11-13T15:40:38.189Z,2.03
2018-11-13T15:45:35.612Z,2.67
2018-11-13T15:50:33.967Z,2.30
2018-11-13T15:55:31.384Z,1.77
2018-11-13T16:00:33.241Z,1.60
2018-11-13T16:05:32.175Z,2.00
2018-11-13T16:10:29.583Z,1.70
2018-11-13T16:15:27.553Z,2.67
2018-11-13T16:20:25.350Z,2.27
2018-11-13T16:25:22.799Z,2.20
2018-11-13T16:30:21.558Z,2.00
2018-11-13T16:35:21.036Z,2.43
2018-11-13T16:40:26.139Z,2.67
2018-11-13T16:45:24.294Z,2.23
2018-11-13T16:50:22.835Z,2.20
2018-11-13T16:55:25.894Z,2.87
2018-11-13T17:00:23.689Z,2.83
2018-11-13T17:05:38.899Z,2.80
2018-11-13T17:10:39.273Z,3.13
2018-11-13T17:15:36.731Z,2.50
2018-11-13T17:20:34.139Z,2.37
2018-11-13T17:25:33.007Z,2.90
2018-11-13T17:30:31.751Z,3.30
2018-11-13T17:35:38.587Z,4.30
2018-11-13T17:40:36.798Z,4.00
2018-11-13T17:45:36.536Z,3.30
2018-11-13T17:50:35.206Z,3.30
2018-11-13T17:55:32.600Z,3.03
2018-11-13T18:00:31.674Z,4.10
2018-11-13T18:05:36.397Z,2.87
2018-11-13T18:10:34.927Z,4.03
2018-11-13T18:15:32.350Z,4.20
2018-11-13T18:20:31.900Z,4.20
2018-11-13T18:25:29.596Z,3.43
2018-11-13T18:30:31.075Z,4.47
2018-11-13T18:35:30.520Z,4.50
2018-11-13T18:40:28.342Z,4.40
2018-11-13T18:45:28.185Z,3.93
2018-11-13T18:50:28.668Z,4.10
2018-11-13T18:55:26.154Z,4.60
2018-11-13T19:00:32.532Z,3.97
2018-11-13T19:05:29.919Z,5.03
2018-11-13T19:10:34.329Z,4.10
2018-11-13T19:15:33.638Z,4.70
2018-11-13T19:20:31.191Z,4.57
2018-11-13T19:25:29.955Z,4.30
2018-11-13T19:30:27.373Z,3.77
2018-11-13T19:35:24.957Z,4.50
2018-11-13T19:40:24.559Z,4.80
2018-11-13T19:45:22.118Z,5.37
2018-11-13T19:50:28.345Z,4.60
2018-11-13T19:55:26.362Z,4.40
2018-11-13T20:00:27.952Z,4.33
2018-11-13T20:05:27.263Z,4.67
2018-11-13T20:10:25.899Z,5.13
2018-11-13T20:15:27.368Z,5.30
2018-11-13T20:20:30.202Z,4.43
2018-11-13T20:25:33.232Z,4.67
2018-11-13T20:30:34.301Z,4.30
2018-11-13T20:35:31.699Z,4.80
2018-11-13T20:40:31.502Z,4.17
2018-11-13T20:45:29.264Z,4.77
2018-11-13T20:50:27.973Z,5.20
2018-11-13T20:55:25.557Z,4.57
2018-11-13T21:00:28.557Z,4.63
2018-11-13T21:05:27.011Z,6.23
2018-11-13T21:10:30.131Z,5.33
2018-11-13T21:15:30.450Z,5.43
2018-11-13T21:20:27.842Z,6.13
2018-11-13T21:25:26.003Z,6.00
2018-11-13T21:30:23.589Z,5.43
2018-11-13T21:35:22.296Z,6.13
2018-11-13T21:40:23.416Z,6.10
2018-11-13T21:45:21.935Z,6.77
2018-11-13T21:50:20.972Z,5.10
2018-11-13T21:55:20.556Z,7.10
2018-11-13T22:00:30.451Z,7.77
2018-11-13T22:05:29.841Z,6.30
2018-11-13T22:10:27.243Z,6.00
2018-11-13T22:15:25.807Z,5.87
2018-11-13T22:20:23.707Z,6.93
2018-11-13T22:25:22.635Z,7.13
2018-11-13T22:30:21.299Z,6.67
2018-11-13T22:35:21.033Z,6.50
2018-11-13T22:40:21.663Z,6.53
2018-11-13T22:45:20.466Z,6.50
2018-11-13T22:50:20.799Z,7.23
2018-11-13T22:55:20.198Z,7.70
2018-11-13T23:00:23.019Z,6.90
2018-11-13T23:05:21.765Z,7.63
2018-11-13T23:10:19.224Z,7.77
2018-11-13T23:15:18.281Z,8.17
2018-11-13T23:20:16.996Z,8.27
2018-11-13T23:25:15.590Z,8.00
2018-11-13T23:30:15.379Z,9.00
2018-11-13T23:35:14.366Z,8.70
2018-11-13T23:40:13.272Z,8.60
2018-11-13T23:45:11.353Z,7.90
2018-11-13T23:50:09.077Z,8.57
2018-11-13T23:55:07.981Z,8.27
